createdAt,value
2018-12-17T00:01:01.989Z,42.75
2018-12-17T00:03:06.333Z,39.67
2018-12-17T00:05:10.255Z,44.33
2018-12-17T00:07:14.474Z,42.20
2018-12-17T00:09:17.943Z,46.80
2018-12-17T00:11:21.211Z,42.55
2018-12-17T00:13:24.422Z,45.47
2018-12-17T00:15:27.929Z,44.85
2018-12-17T00:17:31.343Z,44.48
2018-12-17T00:19:34.529Z,43.30
2018-12-17T00:21:38.046Z,41.92
2018-12-17T00:23:41.502Z,39.35
2018-12-17T00:25:45.006Z,47.20
2018-12-17T00:27:48.886Z,44.45
2018-12-17T00:29:52.365Z,46.83
2018-12-17T00:31:55.994Z,43.05
2018-12-17T00:33:59.451Z,49.83
2018-12-17T00:36:02.668Z,43.02
2018-12-17T00:38:05.891Z,44.93
2018-12-17T00:40:10.495Z,43.63
2018-12-17T00:42:14.422Z,46.80
2018-12-17T00:44:17.911Z,49.05
2018-12-17T00:46:21.869Z,45.78
2018-12-17T00:48:25.477Z,45.80
2018-12-17T00:50:29.384Z,44.42
2018-12-17T00:52:33.251Z,51.83
2018-12-17T00:54:36.846Z,45.73
2018-12-17T00:56:41.022Z,44.73
2018-12-17T00:58:44.486Z,39.78
2018-12-17T01:00:48.187Z,42.62
2018-12-17T01:02:51.892Z,42.73
2018-12-17T01:04:56.182Z,43.58
2018-12-17T01:07:00.074Z,41.70
2018-12-17T01:09:06.284Z,44.85
2018-12-17T01:11:09.851Z,44.40
2018-12-17T01:13:13.288Z,42.67
2018-12-17T01:15:17.172Z,40.15
2018-12-17T01:17:20.643Z,46.73
2018-12-17T01:19:23.810Z,42.08
2018-12-17T01:21:27.668Z,45.17
2018-12-17T01:23:31.134Z,42.53
2018-12-17T01:25:34.606Z,43.17
2018-12-17T01:27:38.500Z,45.12
2018-12-17T01:29:42.338Z,46.05
2018-12-17T01:31:45.808Z,44.25
2018-12-17T01:33:49.761Z,46.00
2018-12-17T01:35:53.250Z,42.00
2018-12-17T01:37:56.856Z,42.98
2018-12-17T01:40:00.745Z,43.23
2018-12-17T01:42:04.691Z,46.88
2018-12-17T01:44:08.171Z,43.42
2018-12-17T01:46:12.162Z,49.40
2018-12-17T01:48:16.326Z,42.83
2018-12-17T01:50:19.863Z,46.13
2018-12-17T01:52:23.372Z,40.38
2018-12-17T01:54:26.854Z,48.05
2018-12-17T01:56:30.067Z,41.63
2018-12-17T01:58:33.596Z,43.52
2018-12-17T02:00:37.058Z,43.70
2018-12-17T02:02:40.326Z,43.80
2018-12-17T02:04:44.109Z,43.80
2018-12-17T02:06:47.321Z,43.00
2018-12-17T02:08:51.425Z,43.02
2018-12-17T02:10:55.013Z,43.02
2018-12-17T02:12:58.437Z,43.20
2018-12-17T02:15:03.209Z,44.73
2018-12-17T02:17:06.664Z,47.13
2018-12-17T02:19:10.175Z,44.40
2018-12-17T02:21:13.964Z,42.98
2018-12-17T02:23:17.446Z,43.02
2018-12-17T02:25:21.124Z,43.25
2018-12-17T02:27:24.626Z,44.63
2018-12-17T02:29:28.929Z,43.80
2018-12-17T02:31:32.836Z,48.17
2018-12-17T02:33:36.457Z,44.17
2018-12-17T02:35:40.557Z,46.83
2018-12-17T02:37:44.035Z,45.43
2018-12-17T02:39:47.531Z,45.78
2018-12-17T02:41:51.101Z,45.88
2018-12-17T02:43:55.338Z,44.30
2018-12-17T02:45:59.265Z,48.15
2018-12-17T02:48:02.958Z,48.25
2018-12-17T02:50:06.727Z,45.43
2018-12-17T02:52:10.229Z,44.23
2018-12-17T02:54:13.630Z,45.97
2018-12-17T02:56:17.120Z,46.95
2018-12-17T02:58:21.186Z,42.95
2018-12-17T03:00:25.351Z,43.02
2018-12-17T03:02:29.027Z,45.67
2018-12-17T03:04:32.526Z,48.17
2018-12-17T03:06:36.394Z,43.25
2018-12-17T03:08:39.580Z,47.30
2018-12-17T03:10:43.065Z,51.20
2018-12-17T03:12:46.854Z,47.45
2018-12-17T03:14:50.327Z,47.33
2018-12-17T03:16:53.527Z,48.65
2018-12-17T03:18:56.743Z,44.45
2018-12-17T03:21:00.625Z,51.75
2018-12-17T03:23:04.281Z,50.80
2018-12-17T03:25:08.337Z,46.50
2018-12-17T03:27:12.238Z,50.58
2018-12-17T03:29:15.758Z,50.50
2018-12-17T03:31:19.830Z,46.60
2018-12-17T03:33:23.247Z,45.43
2018-12-17T03:35:27.041Z,49.60
2018-12-17T03:37:30.856Z,50.45
2018-12-17T03:39:34.328Z,51.45
2018-12-17T03:41:37.802Z,47.50
2018-12-17T03:43:41.317Z,48.15
2018-12-17T03:45:44.949Z,53.70
2018-12-17T03:47:48.484Z,55.10
2018-12-17T03:49:52.086Z,58.02
2018-12-17T03:51:55.571Z,53.75
2018-12-17T03:53:59.178Z,55.03
2018-12-17T03:56:02.666Z,53.02
2018-12-17T03:58:06.187Z,56.40
2018-12-17T04:00:10.767Z,57.90
2018-12-17T04:02:14.298Z,56.00
2018-12-17T04:04:17.894Z,52.55
2018-12-17T04:06:21.402Z,59.90
2018-12-17T04:08:24.875Z,50.43
2018-12-17T04:10:28.182Z,56.37
2018-12-17T04:12:31.904Z,62.08
2018-12-17T04:14:35.123Z,62.55
2018-12-17T04:16:38.930Z,61.77
2018-12-17T04:18:42.184Z,57.45
2018-12-17T04:20:45.412Z,56.77
2018-12-17T04:22:48.930Z,56.40
2018-12-17T04:24:52.446Z,57.00
2018-12-17T04:26:55.992Z,59.55
2018-12-17T04:29:06.635Z,64.07
2018-12-17T04:31:05.701Z,57.67
2018-12-17T04:33:09.227Z,61.92
2018-12-17T04:35:12.750Z,62.20
2018-12-17T04:37:16.282Z,59.73
2018-12-17T04:39:19.768Z,62.78
2018-12-17T04:41:23.431Z,57.67
2018-12-17T04:43:26.949Z,60.95
2018-12-17T04:45:30.502Z,65.28
2018-12-17T04:47:34.028Z,66.12
2018-12-17T04:49:37.554Z,71.77
2018-12-17T04:51:41.050Z,65.28
2018-12-17T04:53:44.244Z,66.80
2018-12-17T04:55:48.014Z,67.97
2018-12-17T04:57:51.875Z,65.03
2018-12-17T04:59:55.343Z,74.50
2018-12-17T05:01:58.902Z,74.77
2018-12-17T05:04:02.822Z,71.25
2018-12-17T05:06:06.714Z,74.37
2018-12-17T05:08:10.239Z,70.72
2018-12-17T05:10:14.540Z,80.75
2018-12-17T05:12:17.748Z,69.67
2018-12-17T05:14:21.438Z,79.15
2018-12-17T05:16:24.986Z,84.42
2018-12-17T05:18:28.481Z,76.50
2018-12-17T05:20:32.418Z,85.62
2018-12-17T05:22:35.890Z,79.20
2018-12-17T05:24:39.665Z,80.25
2018-12-17T05:26:43.544Z,78.10
2018-12-17T05:28:47.425Z,69.30
2018-12-17T05:30:51.099Z,84.30
2018-12-17T05:32:54.351Z,89.95
2018-12-17T05:34:58.088Z,74.97
2018-12-17T05:37:01.327Z,83.87
2018-12-17T05:39:07.330Z,84.40
2018-12-17T05:41:11.138Z,83.65
2018-12-17T05:43:14.605Z,72.45
2018-12-17T05:45:17.827Z,75.87
2018-12-17T05:47:22.130Z,74.07
2018-12-17T05:49:25.589Z,78.90
2018-12-17T05:51:29.330Z,78.30
2018-12-17T05:53:32.915Z,78.42
2018-12-17T05:55:36.122Z,79.50
2018-12-17T05:57:39.626Z,75.97
2018-12-17T05:59:43.178Z,71.25
2018-12-17T06:01:46.702Z,80.00
2018-12-17T06:03:50.206Z,83.30
2018-12-17T06:05:53.393Z,76.67
2018-12-17T06:07:57.175Z,81.20
2018-12-17T06:10:00.533Z,76.10
2018-12-17T06:12:04.326Z,80.45
2018-12-17T06:14:07.508Z,91.92
2018-12-17T06:16:10.746Z,87.67
2018-12-17T06:18:14.444Z,79.30
2018-12-17T06:20:17.662Z,79.95
2018-12-17T06:22:21.164Z,81.10
2018-12-17T06:24:24.884Z,84.45
2018-12-17T06:26:28.746Z,82.12
2018-12-17T06:28:32.674Z,96.72
2018-12-17T06:30:36.185Z,82.67
2018-12-17T06:32:39.663Z,85.40
2018-12-17T06:34:43.158Z,79.65
2018-12-17T06:36:46.393Z,79.77
2018-12-17T06:38:49.887Z,87.92
2018-12-17T06:40:53.639Z,75.57
2018-12-17T06:42:57.112Z,81.53
2018-12-17T06:45:00.554Z,80.53
2018-12-17T06:47:04.126Z,78.45
2018-12-17T06:49:07.695Z,80.97
2018-12-17T06:51:11.218Z,80.20
2018-12-17T06:53:14.826Z,86.87
2018-12-17T06:55:18.332Z,85.28
2018-12-17T06:57:22.027Z,89.30
2018-12-17T06:59:25.695Z,81.20
2018-12-17T07:01:29.182Z,74.23
2018-12-17T07:03:32.766Z,72.32
2018-12-17T07:05:36.006Z,77.37
2018-12-17T07:07:39.205Z,80.77
2018-12-17T07:09:42.726Z,83.12
2018-12-17T07:11:46.594Z,71.05
2018-12-17T07:13:50.227Z,78.05
2018-12-17T07:15:53.447Z,71.60
2018-12-17T07:17:57.421Z,76.77
2018-12-17T07:20:00.631Z,75.10
2018-12-17T07:22:04.482Z,71.17
2018-12-17T07:24:08.071Z,75.73
2018-12-17T07:26:11.550Z,76.40
2018-12-17T07:28:14.810Z,71.80
2018-12-17T07:30:18.742Z,73.87
2018-12-17T07:32:22.007Z,73.47
2018-12-17T07:34:30.106Z,80.32
2018-12-17T07:36:34.151Z,80.05
2018-12-17T07:38:37.604Z,80.87
2018-12-17T07:40:41.110Z,79.65
2018-12-17T07:42:44.339Z,78.00
2018-12-17T07:44:47.902Z,76.80
2018-12-17T07:46:51.432Z,74.97
2018-12-17T07:48:55.242Z,76.30
2018-12-17T07:50:58.564Z,78.95
2018-12-17T07:53:02.301Z,89.32
2018-12-17T07:55:07.061Z,81.75
2018-12-17T07:57:10.522Z,81.95
2018-12-17T07:59:13.737Z,86.05
2018-12-17T08:01:16.983Z,80.47
2018-12-17T08:03:20.452Z,84.95
2018-12-17T08:05:23.998Z,79.97
2018-12-17T08:07:27.408Z,86.90
2018-12-17T08:09:30.906Z,84.65
2018-12-17T08:11:35.203Z,79.43
2018-12-17T08:13:38.842Z,79.10
2018-12-17T08:15:42.354Z,75.05
2018-12-17T08:17:45.572Z,77.20
2018-12-17T08:19:49.132Z,84.15
2018-12-17T08:21:52.594Z,77.87
2018-12-17T08:23:55.811Z,79.53
2018-12-17T08:25:59.654Z,85.40
2018-12-17T08:28:02.838Z,80.38
2018-12-17T08:30:07.714Z,73.43
2018-12-17T08:32:11.606Z,84.10
2018-12-17T08:34:15.245Z,79.87
2018-12-17T08:36:19.171Z,81.53
2018-12-17T08:38:22.682Z,78.70
2018-12-17T08:40:26.142Z,78.28
2018-12-17T08:42:29.930Z,76.05
2018-12-17T08:44:33.562Z,82.22
2018-12-17T08:46:37.534Z,78.47
2018-12-17T08:48:41.034Z,83.87
2018-12-17T08:50:44.701Z,85.00
2018-12-17T08:52:48.199Z,89.87
2018-12-17T08:54:52.182Z,83.27
2018-12-17T08:56:55.655Z,87.08
2018-12-17T08:58:58.851Z,86.02
2018-12-17T09:01:02.417Z,84.20
2018-12-17T09:03:06.242Z,83.67
2018-12-17T09:05:10.562Z,81.28
2018-12-17T09:07:14.054Z,88.35
2018-12-17T09:09:18.290Z,90.12
2018-12-17T09:11:22.382Z,90.07
2018-12-17T09:13:25.938Z,83.62
2018-12-17T09:15:29.706Z,82.10
2018-12-17T09:17:33.598Z,86.60
2018-12-17T09:19:37.117Z,86.02
2018-12-17T09:21:41.331Z,80.72
2018-12-17T09:23:45.278Z,81.67
2018-12-17T09:25:48.718Z,80.55
2018-12-17T09:27:51.928Z,85.87
2018-12-17T09:29:55.571Z,86.83
2018-12-17T09:31:59.189Z,86.85
2018-12-17T09:34:02.761Z,86.67
2018-12-17T09:36:06.260Z,94.62
2018-12-17T09:38:09.905Z,88.67
2018-12-17T09:40:13.770Z,86.20
2018-12-17T09:42:17.256Z,89.67
2018-12-17T09:44:20.742Z,79.97
2018-12-17T09:46:24.221Z,81.80
2018-12-17T09:48:27.692Z,90.97
2018-12-17T09:50:31.061Z,90.87
2018-12-17T09:52:34.546Z,89.40
2018-12-17T09:54:38.052Z,84.25
2018-12-17T09:56:41.309Z,83.13
2018-12-17T09:58:44.782Z,96.20
2018-12-17T10:00:48.278Z,84.32
2018-12-17T10:02:54.951Z,96.73
2018-12-17T10:04:58.601Z,95.80
2018-12-17T10:07:02.383Z,89.47
2018-12-17T10:09:07.353Z,87.90
2018-12-17T10:11:10.830Z,88.62
2018-12-17T10:13:14.036Z,81.57
2018-12-17T10:15:17.531Z,84.47
2018-12-17T10:17:21.069Z,86.63
2018-12-17T10:19:24.253Z,87.17
2018-12-17T10:21:27.724Z,85.90
2018-12-17T10:23:31.482Z,87.57
2018-12-17T10:25:34.986Z,81.60
2018-12-17T10:27:38.772Z,76.25
2018-12-17T10:29:42.890Z,77.92
2018-12-17T10:31:46.782Z,73.42
2018-12-17T10:33:50.648Z,78.70
2018-12-17T10:35:54.011Z,83.40
2018-12-17T10:37:57.977Z,85.55
2018-12-17T10:40:01.234Z,78.23
2018-12-17T10:42:04.768Z,83.75
2018-12-17T10:44:08.277Z,94.40
2018-12-17T10:46:11.761Z,86.22
2018-12-17T10:48:15.260Z,86.67
2018-12-17T10:50:18.523Z,91.80
2018-12-17T10:52:22.392Z,86.67
2018-12-17T10:54:26.575Z,77.27
2018-12-17T10:56:29.844Z,82.70
2018-12-17T10:58:33.948Z,79.40
2018-12-17T11:00:43.408Z,73.80
2018-12-17T11:02:47.915Z,78.65
2018-12-17T11:04:56.960Z,87.60
2018-12-17T11:07:01.266Z,84.85
2018-12-17T11:09:07.866Z,79.90
2018-12-17T11:11:11.773Z,78.85
2018-12-17T11:13:15.603Z,74.58
2018-12-17T11:15:19.091Z,73.80
2018-12-17T11:17:22.627Z,79.60
2018-12-17T11:19:26.803Z,73.93
2018-12-17T11:21:30.403Z,75.52
2018-12-17T11:23:33.877Z,73.40
2018-12-17T11:25:37.930Z,73.27
2018-12-17T11:27:41.567Z,75.90
2018-12-17T11:29:45.056Z,72.25
2018-12-17T11:31:48.262Z,70.20
2018-12-17T11:33:51.742Z,74.10
2018-12-17T11:35:55.931Z,76.60
2018-12-17T11:37:59.466Z,74.53
2018-12-17T11:40:03.782Z,80.47
2018-12-17T11:42:07.946Z,76.60
2018-12-17T11:44:11.771Z,73.17
2018-12-17T11:46:15.307Z,75.67
2018-12-17T11:48:19.234Z,74.87
2018-12-17T11:50:23.147Z,73.28
2018-12-17T11:52:26.651Z,75.65
2018-12-17T11:54:30.146Z,78.80
2018-12-17T11:57:44.715Z,78.80
2018-12-17T11:59:48.153Z,73.05
2018-12-17T12:01:51.316Z,81.97
2018-12-17T12:03:54.520Z,80.45
2018-12-17T12:05:58.146Z,72.20
2018-12-17T12:08:01.618Z,77.75
2018-12-17T12:10:06.402Z,78.67
2018-12-17T12:12:10.186Z,77.65
2018-12-17T12:14:13.962Z,74.58
2018-12-17T12:16:17.248Z,81.37
2018-12-17T12:18:20.752Z,73.22
2018-12-17T12:20:24.992Z,75.37
2018-12-17T12:22:28.755Z,71.67
2018-12-17T12:24:32.258Z,73.20
2018-12-17T12:26:36.098Z,79.30
2018-12-17T12:28:39.554Z,65.50
2018-12-17T12:30:42.778Z,77.70
2018-12-17T12:32:48.006Z,72.27
2018-12-17T12:34:51.256Z,63.20
2018-12-17T12:36:54.799Z,72.05
2018-12-17T12:38:58.315Z,75.65
2018-12-17T12:41:01.498Z,71.70
2018-12-17T12:43:05.408Z,77.82
2018-12-17T12:45:10.611Z,69.62
2018-12-17T12:47:13.859Z,71.93
2018-12-17T12:49:17.401Z,65.57
2018-12-17T12:51:21.195Z,70.50
2018-12-17T12:53:24.718Z,73.15
2018-12-17T12:55:28.024Z,69.85
2018-12-17T12:57:31.749Z,67.30
2018-12-17T12:59:35.590Z,68.35
2018-12-17T13:01:41.867Z,77.12
2018-12-17T13:03:45.346Z,75.05
2018-12-17T13:05:48.681Z,71.80
2018-12-17T13:07:52.146Z,76.75
2018-12-17T13:09:56.051Z,74.75
2018-12-17T13:11:59.642Z,70.92
2018-12-17T13:14:03.247Z,67.78
2018-12-17T13:16:06.810Z,79.92
2018-12-17T13:18:10.078Z,75.92
2018-12-17T13:20:13.758Z,72.70
2018-12-17T13:22:17.295Z,74.50
2018-12-17T13:24:20.674Z,82.07
2018-12-17T13:26:24.253Z,71.15
2018-12-17T13:28:27.475Z,75.37
2018-12-17T13:30:31.160Z,74.22
2018-12-17T13:32:34.602Z,79.82
2018-12-17T13:34:38.622Z,77.20
2018-12-17T13:36:41.859Z,72.35
2018-12-17T13:38:45.410Z,73.50
2018-12-17T13:40:49.210Z,73.00
2018-12-17T13:42:52.902Z,77.70
2018-12-17T13:44:56.392Z,75.87
2018-12-17T13:46:59.900Z,78.95
2018-12-17T13:49:03.864Z,80.38
2018-12-17T13:51:13.259Z,73.57
2018-12-17T13:53:22.346Z,72.97
2018-12-17T13:55:25.898Z,80.47
2018-12-17T13:57:29.391Z,71.37
2018-12-17T13:59:33.061Z,74.12
2018-12-17T14:01:36.587Z,74.15
2018-12-17T14:03:40.084Z,80.20
2018-12-17T14:05:44.498Z,76.77
2018-12-17T14:07:47.997Z,81.10
2018-12-17T14:09:56.878Z,73.90
2018-12-17T14:12:00.423Z,82.60
2018-12-17T14:14:04.755Z,79.12
2018-12-17T14:16:14.638Z,81.75
2018-12-17T14:18:24.939Z,75.67
2018-12-17T14:20:34.330Z,83.37
2018-12-17T14:22:37.856Z,78.23
2018-12-17T14:24:41.166Z,80.55
2018-12-17T14:26:44.390Z,71.70
2018-12-17T14:28:47.924Z,78.12
2018-12-17T14:30:51.430Z,79.47
2018-12-17T14:32:54.639Z,80.60
2018-12-17T14:34:58.863Z,76.75
2018-12-17T14:37:02.802Z,74.60
2018-12-17T14:39:08.228Z,78.72
2018-12-17T14:41:11.715Z,84.35
2018-12-17T14:43:14.905Z,75.35
2018-12-17T14:45:18.456Z,79.90
2018-12-17T14:47:22.335Z,83.82
2018-12-17T14:49:26.599Z,79.65
2018-12-17T14:51:30.082Z,78.70
2018-12-17T14:53:33.502Z,85.40
2018-12-17T14:55:37.421Z,79.30
2018-12-17T14:57:42.356Z,89.90
2018-12-17T14:59:45.834Z,81.97
2018-12-17T15:01:49.657Z,82.27
2018-12-17T15:03:52.863Z,83.20
2018-12-17T15:05:56.383Z,87.78
2018-12-17T15:08:00.547Z,85.25
2018-12-17T15:10:05.467Z,87.92
2018-12-17T15:12:09.342Z,90.75
2018-12-17T15:14:13.148Z,94.92
2018-12-17T15:16:16.993Z,88.92
2018-12-17T15:18:20.473Z,86.42
2018-12-17T15:20:24.130Z,72.37
2018-12-17T15:22:27.650Z,84.37
2018-12-17T15:24:30.874Z,78.73
2018-12-17T15:26:34.953Z,86.30
2018-12-17T15:28:38.699Z,85.97
2018-12-17T15:30:41.995Z,77.32
2018-12-17T15:32:45.934Z,75.22
2018-12-17T15:34:49.160Z,90.00
2018-12-17T15:36:52.370Z,84.60
2018-12-17T15:38:56.259Z,84.30
2018-12-17T15:41:00.057Z,77.05
2018-12-17T15:43:03.942Z,81.47
2018-12-17T15:45:08.606Z,86.08
2018-12-17T15:47:11.885Z,85.00
2018-12-17T15:49:15.381Z,85.87
2018-12-17T15:51:18.876Z,76.80
2018-12-17T15:53:22.718Z,85.50
2018-12-17T15:55:26.254Z,74.07
2018-12-17T15:57:29.726Z,78.40
2018-12-17T15:59:34.198Z,73.10
2018-12-17T16:01:37.386Z,70.47
2018-12-17T16:03:40.973Z,75.35
2018-12-17T16:05:44.484Z,62.78
2018-12-17T16:07:47.766Z,76.40
2018-12-17T16:09:53.761Z,74.42
2018-12-17T16:11:58.620Z,65.70
2018-12-17T16:14:03.278Z,66.67
2018-12-17T16:16:06.771Z,68.15
2018-12-17T16:18:09.958Z,65.47
2018-12-17T16:20:13.145Z,65.00
2018-12-17T16:22:16.698Z,58.87
2018-12-17T16:24:20.507Z,64.60
2018-12-17T16:26:24.392Z,56.65
2018-12-17T16:28:28.294Z,61.55
2018-12-17T16:30:31.770Z,65.33
2018-12-17T16:32:35.298Z,63.58
2018-12-17T16:34:38.989Z,59.48
2018-12-17T16:36:43.690Z,61.25
2018-12-17T16:38:46.921Z,57.93
2018-12-17T16:40:50.447Z,64.07
2018-12-17T16:42:54.382Z,64.67
2018-12-17T16:44:57.862Z,62.40
2018-12-17T16:47:01.118Z,57.83
2018-12-17T16:49:05.586Z,60.05
2018-12-17T16:51:09.082Z,63.83
2018-12-17T16:53:12.306Z,63.08
2018-12-17T16:55:15.619Z,65.90
2018-12-17T16:57:19.482Z,55.10
2018-12-17T16:59:22.707Z,58.97
2018-12-17T17:01:26.544Z,60.85
2018-12-17T17:03:29.814Z,55.95
2018-12-17T17:05:33.318Z,61.88
2018-12-17T17:07:36.908Z,58.50
2018-12-17T17:09:40.098Z,59.67
2018-12-17T17:11:44.419Z,66.62
2018-12-17T17:13:48.139Z,58.58
2018-12-17T17:15:51.768Z,65.60
2018-12-17T17:17:55.198Z,60.12
2018-12-17T17:19:58.486Z,59.00
2018-12-17T17:22:02.351Z,64.50
2018-12-17T17:24:05.538Z,57.00
2018-12-17T17:26:08.986Z,59.97
2018-12-17T17:28:12.482Z,64.12
2018-12-17T17:30:16.055Z,62.43
2018-12-17T17:32:20.090Z,55.12
2018-12-17T17:34:23.979Z,59.95
2018-12-17T17:36:27.181Z,61.23
2018-12-17T17:38:30.994Z,59.05
2018-12-17T17:40:34.404Z,63.55
2018-12-17T17:42:37.898Z,57.33
2018-12-17T17:44:41.374Z,56.92
2018-12-17T17:46:44.987Z,59.20
2018-12-17T17:48:49.967Z,54.42
2018-12-17T17:50:53.798Z,58.63
2018-12-17T17:52:57.298Z,61.55
2018-12-17T17:55:00.811Z,58.13
2018-12-17T17:57:05.206Z,52.57
2018-12-17T17:59:08.723Z,55.58
2018-12-17T18:01:12.758Z,61.48
2018-12-17T18:03:16.287Z,57.13
2018-12-17T18:05:19.741Z,55.08
2018-12-17T18:07:23.226Z,53.17
2018-12-17T18:09:27.110Z,52.08
2018-12-17T18:11:30.686Z,55.28
2018-12-17T18:13:34.206Z,48.80
2018-12-17T18:15:37.775Z,53.58
2018-12-17T18:17:41.506Z,55.85
2018-12-17T18:19:45.170Z,52.45
2018-12-17T18:21:48.757Z,50.55
2018-12-17T18:23:51.999Z,54.20
2018-12-17T18:25:55.228Z,49.63
2018-12-17T18:27:58.766Z,47.50
2018-12-17T18:30:02.629Z,49.77
2018-12-17T18:32:06.677Z,46.80
2018-12-17T18:34:10.178Z,55.73
2018-12-17T18:36:13.670Z,47.17
2018-12-17T18:38:17.224Z,55.57
2018-12-17T18:40:21.159Z,54.93
2018-12-17T18:42:24.648Z,50.60
2018-12-17T18:44:28.666Z,51.02
2018-12-17T18:46:32.787Z,51.05
2018-12-17T18:48:37.320Z,51.45
2018-12-17T18:50:40.822Z,56.10
2018-12-17T18:52:44.744Z,52.25
2018-12-17T18:54:48.427Z,48.80
2018-12-17T18:56:52.122Z,48.23
2018-12-17T18:58:55.780Z,47.73
2018-12-17T19:00:59.282Z,52.38
2018-12-17T19:03:02.761Z,45.52
2018-12-17T19:05:07.079Z,48.07
2018-12-17T19:07:10.645Z,46.90
2018-12-17T19:09:14.627Z,48.23
2018-12-17T19:11:18.149Z,44.93
2018-12-17T19:13:21.903Z,45.25
2018-12-17T19:15:25.431Z,48.15
2018-12-17T19:17:28.944Z,42.45
2018-12-17T19:19:32.994Z,42.55
2018-12-17T19:21:37.399Z,44.10
2018-12-17T19:23:41.207Z,43.27
2018-12-17T19:25:44.998Z,42.80
2018-12-17T19:27:48.487Z,44.20
2018-12-17T19:29:52.018Z,45.63
2018-12-17T19:31:55.642Z,44.67
2018-12-17T19:33:59.131Z,39.88
2018-12-17T19:36:02.661Z,42.10
2018-12-17T19:38:06.433Z,41.98
2018-12-17T19:40:10.555Z,44.50
2018-12-17T19:42:14.470Z,40.05
2018-12-17T19:44:19.630Z,38.48
2018-12-17T19:46:22.922Z,38.60
2018-12-17T19:48:26.806Z,39.00
2018-12-17T19:50:30.154Z,37.87
2018-12-17T19:52:33.621Z,40.25
2018-12-17T19:54:37.523Z,43.15
2018-12-17T19:56:41.041Z,41.42
2018-12-17T19:58:44.238Z,44.83
2018-12-17T20:00:47.531Z,44.57
2018-12-17T20:02:51.381Z,44.45
2018-12-17T20:04:55.634Z,43.50
2018-12-17T20:06:59.150Z,37.38
2018-12-17T20:09:03.449Z,40.43
2018-12-17T20:11:07.306Z,41.50
2018-12-17T20:13:10.854Z,43.10
2018-12-17T20:15:14.780Z,43.65
2018-12-17T20:17:18.393Z,44.10
2018-12-17T20:19:21.906Z,41.85
2018-12-17T20:21:25.474Z,42.15
2018-12-17T20:23:29.283Z,43.60
2018-12-17T20:25:33.078Z,40.85
2018-12-17T20:27:36.674Z,43.48
2018-12-17T20:29:40.186Z,43.30
2018-12-17T20:31:44.110Z,40.85
2018-12-17T20:33:48.045Z,45.60
2018-12-17T20:35:51.551Z,39.13
2018-12-17T20:37:55.570Z,42.00
2018-12-17T20:39:59.067Z,47.20
2018-12-17T20:42:02.300Z,41.27
2018-12-17T20:44:05.986Z,42.53
2018-12-17T20:46:09.681Z,45.05
2018-12-17T20:48:13.197Z,47.75
2018-12-17T20:50:16.495Z,44.75
2018-12-17T20:52:20.262Z,48.67
2018-12-17T20:54:24.593Z,44.48
2018-12-17T20:56:28.400Z,46.65
2018-12-17T20:58:31.957Z,44.98
2018-12-17T21:00:35.659Z,49.48
2018-12-17T21:02:39.544Z,50.15
2018-12-17T21:04:43.582Z,46.25
2018-12-17T21:06:50.072Z,45.33
2018-12-17T21:08:52.647Z,48.80
2018-12-17T21:10:56.166Z,45.45
2018-12-17T21:12:59.986Z,42.98
2018-12-17T21:15:05.025Z,41.53
2018-12-17T21:17:08.510Z,41.10
2018-12-17T21:19:12.211Z,44.65
2018-12-17T21:21:15.706Z,43.55
2018-12-17T21:23:19.961Z,44.83
2018-12-17T21:25:23.804Z,46.28
2018-12-17T21:27:27.236Z,49.18
2018-12-17T21:29:30.493Z,53.53
2018-12-17T21:31:33.984Z,48.80
2018-12-17T21:33:37.466Z,47.05
2018-12-17T21:35:40.822Z,45.80
2018-12-17T21:37:44.375Z,49.40
2018-12-17T21:39:47.849Z,52.73
2018-12-17T21:41:51.122Z,52.60
2018-12-17T21:43:54.695Z,44.25
2018-12-17T21:45:58.231Z,46.55
2018-12-17T21:48:01.765Z,50.00
2018-12-17T21:50:06.882Z,49.18
2018-12-17T21:52:10.371Z,47.58
2018-12-17T21:54:14.120Z,47.93
2018-12-17T21:56:17.920Z,52.43
2018-12-17T21:58:21.438Z,45.70
2018-12-17T22:00:25.391Z,52.15
2018-12-17T22:02:29.643Z,47.67
2018-12-17T22:04:33.186Z,52.00
2018-12-17T22:06:36.686Z,52.27
2018-12-17T22:08:40.225Z,54.38
2018-12-17T22:10:43.558Z,49.27
2018-12-17T22:12:47.230Z,49.25
2018-12-17T22:14:50.434Z,51.10
2018-12-17T22:16:53.634Z,51.13
2018-12-17T22:18:57.213Z,55.47
2018-12-17T22:21:00.788Z,48.95
2018-12-17T22:23:04.574Z,51.30
2018-12-17T22:25:08.926Z,45.25
2018-12-17T22:27:12.455Z,55.97
2018-12-17T22:29:16.362Z,50.30
2018-12-17T22:31:20.161Z,54.55
2018-12-17T22:33:23.626Z,50.45
2018-12-17T22:35:27.098Z,58.70
2018-12-17T22:37:31.003Z,51.73
2018-12-17T22:39:34.546Z,51.10
2018-12-17T22:41:38.422Z,51.28
2018-12-17T22:43:41.925Z,54.85
2018-12-17T22:45:45.140Z,65.55
2018-12-17T22:47:48.346Z,59.37
2018-12-17T22:49:51.590Z,61.60
2018-12-17T22:51:55.087Z,51.40
2018-12-17T22:53:58.559Z,59.65
2018-12-17T22:56:01.906Z,65.25
2018-12-17T22:58:06.037Z,56.20
2018-12-17T23:00:10.787Z,56.70
2018-12-17T23:02:14.450Z,56.08
2018-12-17T23:04:18.190Z,58.83
2018-12-17T23:06:21.390Z,62.20
2018-12-17T23:08:24.930Z,60.70
2018-12-17T23:10:45.309Z,65.47
2018-12-17T23:12:59.900Z,60.35
2018-12-17T23:15:14.981Z,58.55
2018-12-17T23:17:30.059Z,58.48
2018-12-17T23:19:40.498Z,65.40
2018-12-17T23:21:44.394Z,62.53
2018-12-17T23:23:47.954Z,55.73
2018-12-17T23:25:51.470Z,61.37
2018-12-17T23:27:54.874Z,56.83
2018-12-17T23:29:58.433Z,61.68
2018-12-17T23:32:02.718Z,64.67
2018-12-17T23:34:07.200Z,65.05
2018-12-17T23:36:10.678Z,58.92
2018-12-17T23:38:14.174Z,64.77
2018-12-17T23:40:17.702Z,59.80
2018-12-17T23:42:21.606Z,60.60
2018-12-17T23:44:25.510Z,54.55
2018-12-17T23:46:29.799Z,58.50
2018-12-17T23:48:33.595Z,60.67
2018-12-17T23:50:36.798Z,65.97
2018-12-17T23:52:40.250Z,62.43
2018-12-17T23:54:43.743Z,62.17
2018-12-17T23:56:47.236Z,65.42
2018-12-17T23:58:50.760Z,61.92
